sensor_id;sensor_type;location;lat;lon;timestamp;P1;durP1;ratioP1;P2;durP2;ratioP2
62832;SDS011;48891;49.220;6.920;2023-05-10T00:00:13;16.52;;;14.82;;
62832;SDS011;48891;49.220;6.920;2023-05-10T00:02:40;16.08;;;14.20;;
62832;SDS011;48891;49.220;6.920;2023-05-10T00:05:05;17.55;;;15.05;;
62832;SDS011;48891;49.220;6.920;2023-05-10T00:07:31;17.13;;;15.30;;
62832;SDS011;48891;49.220;6.920;2023-05-10T00:09:56;16.30;;;14.52;;
62832;SDS011;48891;49.220;6.920;2023-05-10T00:12:21;17.58;;;15.63;;
62832;SDS011;48891;49.220;6.920;2023-05-10T00:14:46;17.77;;;15.55;;
62832;SDS011;48891;49.220;6.920;2023-05-10T00:17:12;18.80;;;15.20;;
62832;SDS011;48891;49.220;6.920;2023-05-10T00:19:37;17.92;;;15.80;;
62832;SDS011;48891;49.220;6.920;2023-05-10T00:22:02;18.52;;;15.52;;
62832;SDS011;48891;49.220;6.920;2023-05-10T00:24:28;18.02;;;15.73;;
62832;SDS011;48891;49.220;6.920;2023-05-10T00:26:53;18.23;;;15.95;;
62832;SDS011;48891;49.220;6.920;2023-05-10T00:29:18;20.90;;;16.42;;
62832;SDS011;48891;49.220;6.920;2023-05-10T00:31:43;19.40;;;16.67;;
62832;SDS011;48891;49.220;6.920;2023-05-10T00:34:09;20.15;;;17.45;;
62832;SDS011;48891;49.220;6.920;2023-05-10T00:36:34;19.27;;;16.60;;
62832;SDS011;48891;49.220;6.920;2023-05-10T00:38:59;19.50;;;17.00;;
62832;SDS011;48891;49.220;6.920;2023-05-10T00:41:24;19.67;;;16.60;;
62832;SDS011;48891;49.220;6.920;2023-05-10T00:43:50;17.75;;;15.50;;
62832;SDS011;48891;49.220;6.920;2023-05-10T00:46:15;19.13;;;16.00;;
62832;SDS011;48891;49.220;6.920;2023-05-10T00:48:40;20.75;;;17.45;;
62832;SDS011;48891;49.220;6.920;2023-05-10T00:51:06;20.45;;;17.77;;
62832;SDS011;48891;49.220;6.920;2023-05-10T00:53:31;20.75;;;17.65;;
62832;SDS011;48891;49.220;6.920;2023-05-10T00:55:57;21.38;;;18.05;;
62832;SDS011;48891;49.220;6.920;2023-05-10T00:58:22;21.67;;;18.45;;
62832;SDS011;48891;49.220;6.920;2023-05-10T01:00:47;19.50;;;17.38;;
62832;SDS011;48891;49.220;6.920;2023-05-10T01:03:14;20.52;;;18.27;;
62832;SDS011;48891;49.220;6.920;2023-05-10T01:05:39;22.10;;;18.83;;
62832;SDS011;48891;49.220;6.920;2023-05-10T01:08:04;19.42;;;17.38;;
62832;SDS011;48891;49.220;6.920;2023-05-10T01:10:30;21.85;;;18.52;;
62832;SDS011;48891;49.220;6.920;2023-05-10T01:12:56;20.45;;;16.92;;
62832;SDS011;48891;49.220;6.920;2023-05-10T01:15:24;19.90;;;17.63;;
62832;SDS011;48891;49.220;6.920;2023-05-10T01:17:49;21.08;;;18.42;;
62832;SDS011;48891;49.220;6.920;2023-05-10T01:20:16;21.35;;;18.58;;
62832;SDS011;48891;49.220;6.920;2023-05-10T01:34:17;21.05;;;18.77;;
62832;SDS011;48891;49.220;6.920;2023-05-10T01:36:51;22.77;;;18.50;;
62832;SDS011;48891;49.220;6.920;2023-05-10T01:42:21;21.95;;;19.48;;
62832;SDS011;48891;49.220;6.920;2023-05-10T01:48:06;22.48;;;19.95;;
62832;SDS011;48891;49.220;6.920;2023-05-10T01:50:35;21.80;;;18.83;;
62832;SDS011;48891;49.220;6.920;2023-05-10T01:53:02;20.67;;;18.27;;
62832;SDS011;48891;49.220;6.920;2023-05-10T01:55:32;22.25;;;19.60;;
62832;SDS011;48891;49.220;6.920;2023-05-10T01:58:02;22.25;;;19.08;;
62832;SDS011;48891;49.220;6.920;2023-05-10T02:00:31;21.67;;;18.67;;
62832;SDS011;48891;49.220;6.920;2023-05-10T02:02:57;21.45;;;18.73;;
62832;SDS011;48891;49.220;6.920;2023-05-10T02:05:22;23.20;;;18.90;;
62832;SDS011;48891;49.220;6.920;2023-05-10T02:07:49;23.63;;;19.15;;
62832;SDS011;48891;49.220;6.920;2023-05-10T02:10:16;21.67;;;19.02;;
62832;SDS011;48891;49.220;6.920;2023-05-10T02:12:44;22.98;;;19.33;;
62832;SDS011;48891;49.220;6.920;2023-05-10T02:15:12;21.80;;;19.05;;
62832;SDS011;48891;49.220;6.920;2023-05-10T02:17:42;24.10;;;20.10;;
62832;SDS011;48891;49.220;6.920;2023-05-10T02:20:08;22.05;;;18.77;;
62832;SDS011;48891;49.220;6.920;2023-05-10T02:22:35;25.33;;;19.45;;
62832;SDS011;48891;49.220;6.920;2023-05-10T02:25:01;20.90;;;18.20;;
62832;SDS011;48891;49.220;6.920;2023-05-10T02:27:28;23.17;;;19.75;;
62832;SDS011;48891;49.220;6.920;2023-05-10T02:29:54;22.85;;;18.55;;
62832;SDS011;48891;49.220;6.920;2023-05-10T02:32:20;25.27;;;20.58;;
62832;SDS011;48891;49.220;6.920;2023-05-10T02:34:47;21.50;;;18.38;;
62832;SDS011;48891;49.220;6.920;2023-05-10T02:37:14;21.55;;;18.55;;
62832;SDS011;48891;49.220;6.920;2023-05-10T02:39:41;21.92;;;19.65;;
62832;SDS011;48891;49.220;6.920;2023-05-10T02:42:13;22.20;;;19.42;;
62832;SDS011;48891;49.220;6.920;2023-05-10T02:44:42;23.15;;;20.05;;
62832;SDS011;48891;49.220;6.920;2023-05-10T02:47:10;23.92;;;20.13;;
62832;SDS011;48891;49.220;6.920;2023-05-10T02:49:35;20.85;;;18.25;;
62832;SDS011;48891;49.220;6.920;2023-05-10T02:52:01;22.85;;;19.63;;
62832;SDS011;48891;49.220;6.920;2023-05-10T02:54:31;22.38;;;19.52;;
62832;SDS011;48891;49.220;6.920;2023-05-10T02:57:03;24.13;;;20.60;;
62832;SDS011;48891;49.220;6.920;2023-05-10T02:59:30;23.20;;;19.35;;
62832;SDS011;48891;49.220;6.920;2023-05-10T03:01:56;23.42;;;20.42;;
62832;SDS011;48891;49.220;6.920;2023-05-10T03:04:21;24.63;;;20.20;;
62832;SDS011;48891;49.220;6.920;2023-05-10T03:06:46;24.52;;;19.92;;
62832;SDS011;48891;49.220;6.920;2023-05-10T03:09:12;26.05;;;21.50;;
62832;SDS011;48891;49.220;6.920;2023-05-10T03:11:58;23.70;;;19.42;;
62832;SDS011;48891;49.220;6.920;2023-05-10T03:17:07;23.98;;;20.38;;
62832;SDS011;48891;49.220;6.920;2023-05-10T03:19:53;23.10;;;20.02;;
62832;SDS011;48891;49.220;6.920;2023-05-10T03:22:44;23.20;;;20.48;;
62832;SDS011;48891;49.220;6.920;2023-05-10T03:25:11;22.70;;;19.70;;
62832;SDS011;48891;49.220;6.920;2023-05-10T03:27:40;24.70;;;20.13;;
62832;SDS011;48891;49.220;6.920;2023-05-10T03:30:08;23.20;;;20.33;;
62832;SDS011;48891;49.220;6.920;2023-05-10T03:32:35;24.73;;;20.80;;
62832;SDS011;48891;49.220;6.920;2023-05-10T03:35:06;23.30;;;19.40;;
62832;SDS011;48891;49.220;6.920;2023-05-10T03:37:35;23.80;;;20.30;;
62832;SDS011;48891;49.220;6.920;2023-05-10T03:40:01;25.00;;;20.45;;
62832;SDS011;48891;49.220;6.920;2023-05-10T03:42:26;24.20;;;19.95;;
62832;SDS011;48891;49.220;6.920;2023-05-10T03:44:52;22.70;;;20.25;;
62832;SDS011;48891;49.220;6.920;2023-05-10T03:47:17;23.38;;;20.88;;
62832;SDS011;48891;49.220;6.920;2023-05-10T03:49:42;22.25;;;19.23;;
62832;SDS011;48891;49.220;6.920;2023-05-10T03:52:07;23.75;;;20.02;;
62832;SDS011;48891;49.220;6.920;2023-05-10T03:54:33;25.20;;;20.50;;
62832;SDS011;48891;49.220;6.920;2023-05-10T03:56:58;24.63;;;20.27;;
62832;SDS011;48891;49.220;6.920;2023-05-10T03:59:23;23.77;;;20.02;;
62832;SDS011;48891;49.220;6.920;2023-05-10T04:01:48;22.00;;;19.70;;
62832;SDS011;48891;49.220;6.920;2023-05-10T04:04:14;22.25;;;19.52;;
62832;SDS011;48891;49.220;6.920;2023-05-10T04:06:39;22.20;;;19.73;;
62832;SDS011;48891;49.220;6.920;2023-05-10T04:09:04;23.70;;;19.98;;
62832;SDS011;48891;49.220;6.920;2023-05-10T04:11:30;23.27;;;20.52;;
62832;SDS011;48891;49.220;6.920;2023-05-10T04:13:55;22.85;;;19.85;;
62832;SDS011;48891;49.220;6.920;2023-05-10T04:16:20;24.90;;;20.08;;
62832;SDS011;48891;49.220;6.920;2023-05-10T04:18:45;23.08;;;20.58;;
62832;SDS011;48891;49.220;6.920;2023-05-10T04:21:14;22.58;;;19.20;;
62832;SDS011;48891;49.220;6.920;2023-05-10T04:23:40;22.63;;;19.42;;
62832;SDS011;48891;49.220;6.920;2023-05-10T04:26:05;23.83;;;20.42;;
62832;SDS011;48891;49.220;6.920;2023-05-10T04:28:30;22.75;;;19.67;;
62832;SDS011;48891;49.220;6.920;2023-05-10T04:31:05;22.60;;;19.67;;
62832;SDS011;48891;49.220;6.920;2023-05-10T04:33:32;23.42;;;19.45;;
62832;SDS011;48891;49.220;6.920;2023-05-10T04:35:58;22.20;;;19.77;;
62832;SDS011;48891;49.220;6.920;2023-05-10T04:38:23;23.00;;;19.15;;
62832;SDS011;48891;49.220;6.920;2023-05-10T04:40:49;22.30;;;19.05;;
62832;SDS011;48891;49.220;6.920;2023-05-10T04:43:14;22.53;;;19.43;;
62832;SDS011;48891;49.220;6.920;2023-05-10T04:45:39;20.90;;;18.20;;
62832;SDS011;48891;49.220;6.920;2023-05-10T04:48:05;21.90;;;19.23;;
62832;SDS011;48891;49.220;6.920;2023-05-10T04:50:30;22.20;;;19.15;;
62832;SDS011;48891;49.220;6.920;2023-05-10T04:52:55;22.23;;;18.58;;
62832;SDS011;48891;49.220;6.920;2023-05-10T04:55:21;22.25;;;19.20;;
62832;SDS011;48891;49.220;6.920;2023-05-10T04:57:46;23.70;;;20.13;;
62832;SDS011;48891;49.220;6.920;2023-05-10T05:00:11;21.95;;;18.23;;
62832;SDS011;48891;49.220;6.920;2023-05-10T05:02:37;23.25;;;19.35;;
62832;SDS011;48891;49.220;6.920;2023-05-10T05:05:02;22.77;;;18.85;;
62832;SDS011;48891;49.220;6.920;2023-05-10T05:07:28;21.63;;;18.80;;
62832;SDS011;48891;49.220;6.920;2023-05-10T05:09:53;21.40;;;18.35;;
62832;SDS011;48891;49.220;6.920;2023-05-10T05:12:18;22.35;;;19.23;;
62832;SDS011;48891;49.220;6.920;2023-05-10T05:14:43;23.40;;;19.42;;
62832;SDS011;48891;49.220;6.920;2023-05-10T05:17:09;20.73;;;18.52;;
62832;SDS011;48891;49.220;6.920;2023-05-10T05:19:34;22.95;;;18.00;;
62832;SDS011;48891;49.220;6.920;2023-05-10T05:21:59;21.48;;;19.17;;
62832;SDS011;48891;49.220;6.920;2023-05-10T05:24:24;21.38;;;18.25;;
62832;SDS011;48891;49.220;6.920;2023-05-10T05:26:50;22.60;;;18.98;;
62832;SDS011;48891;49.220;6.920;2023-05-10T05:29:15;21.37;;;18.27;;
62832;SDS011;48891;49.220;6.920;2023-05-10T05:31:40;21.00;;;17.58;;
62832;SDS011;48891;49.220;6.920;2023-05-10T05:34:05;22.30;;;18.37;;
62832;SDS011;48891;49.220;6.920;2023-05-10T05:36:30;22.88;;;18.60;;
62832;SDS011;48891;49.220;6.920;2023-05-10T05:38:56;20.60;;;18.27;;
62832;SDS011;48891;49.220;6.920;2023-05-10T05:41:21;20.87;;;17.77;;
62832;SDS011;48891;49.220;6.920;2023-05-10T05:43:46;20.45;;;17.65;;
62832;SDS011;48891;49.220;6.920;2023-05-10T05:46:11;20.42;;;18.27;;
62832;SDS011;48891;49.220;6.920;2023-05-10T05:48:37;20.57;;;17.07;;
62832;SDS011;48891;49.220;6.920;2023-05-10T05:51:02;20.77;;;18.35;;
62832;SDS011;48891;49.220;6.920;2023-05-10T05:53:27;21.05;;;17.70;;
62832;SDS011;48891;49.220;6.920;2023-05-10T05:55:56;20.25;;;18.13;;
62832;SDS011;48891;49.220;6.920;2023-05-10T05:58:23;21.00;;;17.35;;
62832;SDS011;48891;49.220;6.920;2023-05-10T06:00:49;21.55;;;18.02;;
62832;SDS011;48891;49.220;6.920;2023-05-10T06:03:14;19.90;;;17.42;;
62832;SDS011;48891;49.220;6.920;2023-05-10T06:05:40;20.63;;;17.45;;
62832;SDS011;48891;49.220;6.920;2023-05-10T06:08:05;19.50;;;17.23;;
62832;SDS011;48891;49.220;6.920;2023-05-10T06:10:30;19.70;;;17.15;;
62832;SDS011;48891;49.220;6.920;2023-05-10T06:12:55;19.55;;;16.65;;
62832;SDS011;48891;49.220;6.920;2023-05-10T06:15:21;17.90;;;16.00;;
62832;SDS011;48891;49.220;6.920;2023-05-10T06:17:46;19.55;;;16.23;;
62832;SDS011;48891;49.220;6.920;2023-05-10T06:20:11;19.17;;;16.40;;
62832;SDS011;48891;49.220;6.920;2023-05-10T06:22:37;19.38;;;16.33;;
62832;SDS011;48891;49.220;6.920;2023-05-10T06:25:02;18.77;;;16.60;;
62832;SDS011;48891;49.220;6.920;2023-05-10T06:27:28;19.40;;;16.15;;
62832;SDS011;48891;49.220;6.920;2023-05-10T06:29:53;18.47;;;15.73;;
62832;SDS011;48891;49.220;6.920;2023-05-10T06:32:18;18.95;;;16.75;;
62832;SDS011;48891;49.220;6.920;2023-05-10T06:34:43;18.80;;;15.35;;
62832;SDS011;48891;49.220;6.920;2023-05-10T06:37:09;20.10;;;16.70;;
62832;SDS011;48891;49.220;6.920;2023-05-10T06:39:34;18.38;;;15.68;;
62832;SDS011;48891;49.220;6.920;2023-05-10T06:41:59;20.80;;;16.52;;
62832;SDS011;48891;49.220;6.920;2023-05-10T06:44:24;19.95;;;16.63;;
62832;SDS011;48891;49.220;6.920;2023-05-10T06:46:49;17.92;;;15.00;;
62832;SDS011;48891;49.220;6.920;2023-05-10T06:49:15;18.58;;;16.58;;
62832;SDS011;48891;49.220;6.920;2023-05-10T06:51:40;19.80;;;16.13;;
62832;SDS011;48891;49.220;6.920;2023-05-10T06:54:05;17.33;;;15.27;;
62832;SDS011;48891;49.220;6.920;2023-05-10T06:56:30;20.35;;;16.30;;
62832;SDS011;48891;49.220;6.920;2023-05-10T06:58:56;18.35;;;16.10;;
62832;SDS011;48891;49.220;6.920;2023-05-10T07:01:21;17.83;;;15.55;;
62832;SDS011;48891;49.220;6.920;2023-05-10T07:03:46;18.33;;;15.50;;
62832;SDS011;48891;49.220;6.920;2023-05-10T07:06:11;16.63;;;14.63;;
62832;SDS011;48891;49.220;6.920;2023-05-10T07:08:37;17.33;;;15.47;;
62832;SDS011;48891;49.220;6.920;2023-05-10T07:11:02;17.33;;;14.95;;
62832;SDS011;48891;49.220;6.920;2023-05-10T07:13:29;16.83;;;14.98;;
62832;SDS011;48891;49.220;6.920;2023-05-10T07:15:58;17.83;;;15.10;;
62832;SDS011;48891;49.220;6.920;2023-05-10T07:18:24;18.17;;;15.80;;
62832;SDS011;48891;49.220;6.920;2023-05-10T07:20:50;16.80;;;15.00;;
62832;SDS011;48891;49.220;6.920;2023-05-10T07:23:15;16.73;;;14.40;;
62832;SDS011;48891;49.220;6.920;2023-05-10T07:25:41;16.05;;;14.27;;
62832;SDS011;48891;49.220;6.920;2023-05-10T07:28:06;16.60;;;14.43;;
62832;SDS011;48891;49.220;6.920;2023-05-10T07:30:31;17.42;;;14.32;;
62832;SDS011;48891;49.220;6.920;2023-05-10T07:32:56;15.95;;;13.63;;
62832;SDS011;48891;49.220;6.920;2023-05-10T07:35:21;17.60;;;14.93;;
62832;SDS011;48891;49.220;6.920;2023-05-10T07:37:47;16.27;;;14.43;;
62832;SDS011;48891;49.220;6.920;2023-05-10T07:40:12;16.67;;;13.65;;
62832;SDS011;48891;49.220;6.920;2023-05-10T07:42:37;15.35;;;13.55;;
62832;SDS011;48891;49.220;6.920;2023-05-10T07:45:03;15.80;;;13.33;;
62832;SDS011;48891;49.220;6.920;2023-05-10T07:47:28;15.25;;;13.00;;
62832;SDS011;48891;49.220;6.920;2023-05-10T07:49:55;14.88;;;13.27;;
62832;SDS011;48891;49.220;6.920;2023-05-10T07:52:20;16.42;;;13.65;;
62832;SDS011;48891;49.220;6.920;2023-05-10T07:54:45;14.95;;;12.70;;
62832;SDS011;48891;49.220;6.920;2023-05-10T07:57:10;16.17;;;13.48;;
62832;SDS011;48891;49.220;6.920;2023-05-10T07:59:36;14.73;;;13.13;;
62832;SDS011;48891;49.220;6.920;2023-05-10T08:02:01;15.13;;;13.13;;
62832;SDS011;48891;49.220;6.920;2023-05-10T08:04:26;14.40;;;12.20;;
62832;SDS011;48891;49.220;6.920;2023-05-10T08:06:51;15.60;;;13.27;;
62832;SDS011;48891;49.220;6.920;2023-05-10T08:09:16;15.33;;;12.63;;
62832;SDS011;48891;49.220;6.920;2023-05-10T08:11:42;14.57;;;12.95;;
62832;SDS011;48891;49.220;6.920;2023-05-10T08:14:07;13.52;;;12.05;;
62832;SDS011;48891;49.220;6.920;2023-05-10T08:16:32;14.33;;;11.70;;
62832;SDS011;48891;49.220;6.920;2023-05-10T08:18:57;13.97;;;11.53;;
62832;SDS011;48891;49.220;6.920;2023-05-10T08:21:23;14.68;;;12.35;;
62832;SDS011;48891;49.220;6.920;2023-05-10T08:23:48;14.77;;;12.35;;
62832;SDS011;48891;49.220;6.920;2023-05-10T08:26:13;12.95;;;11.50;;
62832;SDS011;48891;49.220;6.920;2023-05-10T08:28:38;14.90;;;11.40;;
62832;SDS011;48891;49.220;6.920;2023-05-10T08:31:04;13.40;;;11.57;;
62832;SDS011;48891;49.220;6.920;2023-05-10T08:33:30;14.13;;;12.00;;
62832;SDS011;48891;49.220;6.920;2023-05-10T08:35:55;13.73;;;11.35;;
62832;SDS011;48891;49.220;6.920;2023-05-10T08:38:20;14.63;;;11.90;;
62832;SDS011;48891;49.220;6.920;2023-05-10T08:40:45;13.35;;;11.93;;
62832;SDS011;48891;49.220;6.920;2023-05-10T08:43:13;14.13;;;11.20;;
62832;SDS011;48891;49.220;6.920;2023-05-10T08:45:39;14.43;;;11.23;;
62832;SDS011;48891;49.220;6.920;2023-05-10T08:48:09;12.80;;;11.13;;
62832;SDS011;48891;49.220;6.920;2023-05-10T08:50:35;12.38;;;10.63;;
62832;SDS011;48891;49.220;6.920;2023-05-10T08:53:03;12.95;;;11.10;;
62832;SDS011;48891;49.220;6.920;2023-05-10T08:55:31;11.77;;;10.50;;
62832;SDS011;48891;49.220;6.920;2023-05-10T08:57:58;12.07;;;10.52;;
62832;SDS011;48891;49.220;6.920;2023-05-10T09:00:23;13.75;;;11.18;;
62832;SDS011;48891;49.220;6.920;2023-05-10T09:02:49;12.32;;;10.65;;
62832;SDS011;48891;49.220;6.920;2023-05-10T09:05:15;12.18;;;10.25;;
62832;SDS011;48891;49.220;6.920;2023-05-10T09:07:40;14.23;;;11.43;;
62832;SDS011;48891;49.220;6.920;2023-05-10T09:10:05;12.20;;;10.20;;
62832;SDS011;48891;49.220;6.920;2023-05-10T09:12:31;12.65;;;10.73;;
62832;SDS011;48891;49.220;6.920;2023-05-10T09:14:57;13.10;;;10.70;;
62832;SDS011;48891;49.220;6.920;2023-05-10T09:17:25;11.20;;;9.95;;
62832;SDS011;48891;49.220;6.920;2023-05-10T09:19:58;12.98;;;10.57;;
62832;SDS011;48891;49.220;6.920;2023-05-10T09:22:24;12.02;;;10.18;;
62832;SDS011;48891;49.220;6.920;2023-05-10T09:25:03;11.82;;;10.63;;
62832;SDS011;48891;49.220;6.920;2023-05-10T09:27:32;13.43;;;10.90;;
62832;SDS011;48891;49.220;6.920;2023-05-10T09:29:58;11.95;;;10.75;;
62832;SDS011;48891;49.220;6.920;2023-05-10T09:32:35;12.27;;;10.98;;
62832;SDS011;48891;49.220;6.920;2023-05-10T09:35:08;11.68;;;10.10;;
62832;SDS011;48891;49.220;6.920;2023-05-10T09:37:34;11.05;;;9.32;;
62832;SDS011;48891;49.220;6.920;2023-05-10T09:39:59;11.65;;;9.73;;
62832;SDS011;48891;49.220;6.920;2023-05-10T09:42:24;12.00;;;9.80;;
62832;SDS011;48891;49.220;6.920;2023-05-10T09:44:50;10.80;;;9.65;;
62832;SDS011;48891;49.220;6.920;2023-05-10T09:47:18;11.57;;;9.97;;
62832;SDS011;48891;49.220;6.920;2023-05-10T09:52:08;11.25;;;9.73;;
62832;SDS011;48891;49.220;6.920;2023-05-10T09:54:34;11.30;;;9.90;;
62832;SDS011;48891;49.220;6.920;2023-05-10T09:56:59;10.40;;;8.88;;
62832;SDS011;48891;49.220;6.920;2023-05-10T09:59:26;11.98;;;10.18;;
62832;SDS011;48891;49.220;6.920;2023-05-10T10:01:52;11.07;;;9.50;;
62832;SDS011;48891;49.220;6.920;2023-05-10T10:04:20;11.35;;;9.38;;
62832;SDS011;48891;49.220;6.920;2023-05-10T10:06:46;11.27;;;9.60;;
62832;SDS011;48891;49.220;6.920;2023-05-10T10:09:11;10.13;;;8.70;;
62832;SDS011;48891;49.220;6.920;2023-05-10T10:11:37;12.07;;;9.07;;
62832;SDS011;48891;49.220;6.920;2023-05-10T10:14:03;11.07;;;9.77;;
62832;SDS011;48891;49.220;6.920;2023-05-10T10:16:29;10.57;;;8.80;;
62832;SDS011;48891;49.220;6.920;2023-05-10T10:18:55;10.93;;;9.68;;
62832;SDS011;48891;49.220;6.920;2023-05-10T10:21:21;12.10;;;8.73;;
62832;SDS011;48891;49.220;6.920;2023-05-10T10:23:47;11.02;;;8.85;;
62832;SDS011;48891;49.220;6.920;2023-05-10T10:26:13;10.90;;;8.77;;
62832;SDS011;48891;49.220;6.920;2023-05-10T10:31:34;11.95;;;8.93;;
62832;SDS011;48891;49.220;6.920;2023-05-10T10:34:16;9.43;;;8.13;;
62832;SDS011;48891;49.220;6.920;2023-05-10T10:36:46;9.88;;;8.45;;
62832;SDS011;48891;49.220;6.920;2023-05-10T10:39:12;10.02;;;8.55;;
62832;SDS011;48891;49.220;6.920;2023-05-10T10:41:39;10.00;;;8.57;;
62832;SDS011;48891;49.220;6.920;2023-05-10T10:47:02;10.65;;;8.57;;
62832;SDS011;48891;49.220;6.920;2023-05-10T10:49:30;9.63;;;8.50;;
62832;SDS011;48891;49.220;6.920;2023-05-10T10:55:08;10.10;;;8.27;;
62832;SDS011;48891;49.220;6.920;2023-05-10T11:02:50;9.13;;;8.02;;
62832;SDS011;48891;49.220;6.920;2023-05-10T11:07:52;8.73;;;7.70;;
62832;SDS011;48891;49.220;6.920;2023-05-10T11:10:21;9.20;;;7.70;;
62832;SDS011;48891;49.220;6.920;2023-05-10T11:12:51;10.50;;;8.27;;
62832;SDS011;48891;49.220;6.920;2023-05-10T11:15:16;9.27;;;7.72;;
62832;SDS011;48891;49.220;6.920;2023-05-10T11:17:42;8.65;;;7.75;;
62832;SDS011;48891;49.220;6.920;2023-05-10T11:20:08;9.27;;;7.80;;
62832;SDS011;48891;49.220;6.920;2023-05-10T11:22:53;9.20;;;7.10;;
62832;SDS011;48891;49.220;6.920;2023-05-10T11:25:19;9.82;;;7.97;;
62832;SDS011;48891;49.220;6.920;2023-05-10T11:27:45;7.75;;;6.82;;
62832;SDS011;48891;49.220;6.920;2023-05-10T11:30:12;9.00;;;7.65;;
62832;SDS011;48891;49.220;6.920;2023-05-10T11:32:39;9.02;;;7.72;;
62832;SDS011;48891;49.220;6.920;2023-05-10T11:35:11;9.20;;;7.30;;
62832;SDS011;48891;49.220;6.920;2023-05-10T11:37:37;9.63;;;7.75;;
62832;SDS011;48891;49.220;6.920;2023-05-10T11:40:04;8.65;;;7.30;;
62832;SDS011;48891;49.220;6.920;2023-05-10T11:42:30;8.55;;;6.72;;
62832;SDS011;48891;49.220;6.920;2023-05-10T11:44:55;7.90;;;7.03;;
62832;SDS011;48891;49.220;6.920;2023-05-10T11:47:21;8.00;;;6.75;;
62832;SDS011;48891;49.220;6.920;2023-05-10T11:49:47;8.40;;;7.50;;
62832;SDS011;48891;49.220;6.920;2023-05-10T11:52:12;8.90;;;7.18;;
62832;SDS011;48891;49.220;6.920;2023-05-10T11:54:44;8.02;;;6.75;;
62832;SDS011;48891;49.220;6.920;2023-05-10T11:57:20;8.10;;;6.70;;
62832;SDS011;48891;49.220;6.920;2023-05-10T11:59:46;8.32;;;7.20;;
62832;SDS011;48891;49.220;6.920;2023-05-10T12:02:14;8.52;;;6.70;;
62832;SDS011;48891;49.220;6.920;2023-05-10T12:04:40;7.22;;;6.22;;
62832;SDS011;48891;49.220;6.920;2023-05-10T12:07:06;7.78;;;6.57;;
62832;SDS011;48891;49.220;6.920;2023-05-10T12:09:31;8.40;;;6.97;;
62832;SDS011;48891;49.220;6.920;2023-05-10T12:11:57;8.13;;;6.88;;
62832;SDS011;48891;49.220;6.920;2023-05-10T12:14:22;7.75;;;6.30;;
62832;SDS011;48891;49.220;6.920;2023-05-10T12:16:47;7.43;;;6.32;;
62832;SDS011;48891;49.220;6.920;2023-05-10T12:19:13;7.40;;;6.43;;
62832;SDS011;48891;49.220;6.920;2023-05-10T12:21:43;6.97;;;5.78;;
62832;SDS011;48891;49.220;6.920;2023-05-10T12:24:09;7.28;;;6.30;;
62832;SDS011;48891;49.220;6.920;2023-05-10T12:26:34;7.43;;;6.30;;
62832;SDS011;48891;49.220;6.920;2023-05-10T12:29:15;7.75;;;6.10;;
62832;SDS011;48891;49.220;6.920;2023-05-10T12:31:48;7.28;;;6.10;;
62832;SDS011;48891;49.220;6.920;2023-05-10T12:34:22;7.82;;;6.13;;
62832;SDS011;48891;49.220;6.920;2023-05-10T12:36:52;7.05;;;6.10;;
62832;SDS011;48891;49.220;6.920;2023-05-10T12:39:17;7.95;;;6.60;;
62832;SDS011;48891;49.220;6.920;2023-05-10T12:41:43;8.35;;;6.43;;
62832;SDS011;48891;49.220;6.920;2023-05-10T12:44:08;8.07;;;6.30;;
62832;SDS011;48891;49.220;6.920;2023-05-10T12:46:33;7.32;;;6.20;;
62832;SDS011;48891;49.220;6.920;2023-05-10T12:48:59;8.20;;;6.60;;
62832;SDS011;48891;49.220;6.920;2023-05-10T12:51:24;7.50;;;6.13;;
62832;SDS011;48891;49.220;6.920;2023-05-10T12:53:49;7.65;;;6.28;;
62832;SDS011;48891;49.220;6.920;2023-05-10T12:56:14;7.07;;;5.68;;
62832;SDS011;48891;49.220;6.920;2023-05-10T12:58:40;8.18;;;6.47;;
62832;SDS011;48891;49.220;6.920;2023-05-10T13:01:05;7.68;;;6.10;;
62832;SDS011;48891;49.220;6.920;2023-05-10T13:03:30;7.75;;;6.40;;
62832;SDS011;48891;49.220;6.920;2023-05-10T13:05:56;7.25;;;6.00;;
62832;SDS011;48891;49.220;6.920;2023-05-10T13:08:21;6.88;;;5.53;;
62832;SDS011;48891;49.220;6.920;2023-05-10T13:10:46;6.93;;;6.20;;
62832;SDS011;48891;49.220;6.920;2023-05-10T13:13:11;6.50;;;5.53;;
62832;SDS011;48891;49.220;6.920;2023-05-10T13:15:37;6.80;;;5.85;;
62832;SDS011;48891;49.220;6.920;2023-05-10T13:18:02;8.43;;;5.97;;
62832;SDS011;48891;49.220;6.920;2023-05-10T13:20:27;6.57;;;5.70;;
62832;SDS011;48891;49.220;6.920;2023-05-10T13:22:52;7.05;;;5.97;;
62832;SDS011;48891;49.220;6.920;2023-05-10T13:25:18;6.95;;;5.80;;
62832;SDS011;48891;49.220;6.920;2023-05-10T13:27:43;7.18;;;6.00;;
62832;SDS011;48891;49.220;6.920;2023-05-10T13:30:08;7.93;;;6.50;;
62832;SDS011;48891;49.220;6.920;2023-05-10T13:32:34;8.30;;;6.65;;
62832;SDS011;48891;49.220;6.920;2023-05-10T13:35:00;7.30;;;6.10;;
62832;SDS011;48891;49.220;6.920;2023-05-10T13:37:26;7.25;;;5.90;;
62832;SDS011;48891;49.220;6.920;2023-05-10T13:39:51;8.45;;;6.22;;
62832;SDS011;48891;49.220;6.920;2023-05-10T13:42:17;7.40;;;6.18;;
62832;SDS011;48891;49.220;6.920;2023-05-10T13:44:43;8.25;;;6.38;;
62832;SDS011;48891;49.220;6.920;2023-05-10T13:47:08;8.38;;;6.10;;
62832;SDS011;48891;49.220;6.920;2023-05-10T13:49:33;6.78;;;5.80;;
62832;SDS011;48891;49.220;6.920;2023-05-10T13:51:58;7.20;;;6.13;;
62832;SDS011;48891;49.220;6.920;2023-05-10T13:54:24;7.63;;;6.50;;
62832;SDS011;48891;49.220;6.920;2023-05-10T13:56:49;7.07;;;5.80;;
62832;SDS011;48891;49.220;6.920;2023-05-10T13:59:15;7.30;;;6.40;;
62832;SDS011;48891;49.220;6.920;2023-05-10T14:01:40;7.68;;;6.22;;
62832;SDS011;48891;49.220;6.920;2023-05-10T14:04:06;7.10;;;6.03;;
62832;SDS011;48891;49.220;6.920;2023-05-10T14:06:31;7.40;;;6.60;;
62832;SDS011;48891;49.220;6.920;2023-05-10T14:08:57;7.63;;;6.07;;
62832;SDS011;48891;49.220;6.920;2023-05-10T14:11:22;8.40;;;6.88;;
62832;SDS011;48891;49.220;6.920;2023-05-10T14:13:47;7.50;;;6.10;;
62832;SDS011;48891;49.220;6.920;2023-05-10T14:16:12;7.87;;;6.23;;
62832;SDS011;48891;49.220;6.920;2023-05-10T14:18:38;7.45;;;6.18;;
62832;SDS011;48891;49.220;6.920;2023-05-10T14:21:03;7.43;;;6.10;;
62832;SDS011;48891;49.220;6.920;2023-05-10T14:23:28;6.97;;;6.03;;
62832;SDS011;48891;49.220;6.920;2023-05-10T14:25:54;7.70;;;6.15;;
62832;SDS011;48891;49.220;6.920;2023-05-10T14:28:19;7.45;;;6.07;;
62832;SDS011;48891;49.220;6.920;2023-05-10T14:30:44;7.30;;;6.38;;
62832;SDS011;48891;49.220;6.920;2023-05-10T14:33:09;7.75;;;6.30;;
62832;SDS011;48891;49.220;6.920;2023-05-10T14:35:35;7.88;;;6.45;;
62832;SDS011;48891;49.220;6.920;2023-05-10T14:38:01;9.05;;;6.95;;
62832;SDS011;48891;49.220;6.920;2023-05-10T14:40:27;7.88;;;6.60;;
62832;SDS011;48891;49.220;6.920;2023-05-10T14:42:53;8.57;;;6.82;;
62832;SDS011;48891;49.220;6.920;2023-05-10T14:45:18;10.68;;;6.85;;
62832;SDS011;48891;49.220;6.920;2023-05-10T14:47:43;7.82;;;6.40;;
62832;SDS011;48891;49.220;6.920;2023-05-10T14:50:08;8.33;;;6.50;;
62832;SDS011;48891;49.220;6.920;2023-05-10T14:52:34;8.18;;;6.80;;
62832;SDS011;48891;49.220;6.920;2023-05-10T14:54:59;8.43;;;6.72;;
62832;SDS011;48891;49.220;6.920;2023-05-10T14:57:24;8.52;;;7.07;;
62832;SDS011;48891;49.220;6.920;2023-05-10T14:59:50;8.13;;;6.80;;
62832;SDS011;48891;49.220;6.920;2023-05-10T15:02:15;9.48;;;7.90;;
62832;SDS011;48891;49.220;6.920;2023-05-10T15:04:40;8.35;;;7.28;;